aviador You're here:

PAMH Decoded Metar

MINCHUMINA in AK, USA
Report Time2017-07-26 05:56:00
UTC Time2017-07-26 06:27:34
Flight Rules vfr VFR
WindCalm
Visibility9999 m
Phenomena:N/A
Clouds:Scattered 023 Hf
Broken 048 Hf
Overcast 065 Hf
Expected CloudBase > 2,400 ft AGL from Temp-Dew spread
Ceiling4,800 ft
Temp16°C (ISA +2)
Dew Point10°C (68% RH)
QNH1011 hPa
Density Alt1,220 ft
Elevation702 ft
Report Wrong Elevation
Raw Report
PAMH 260556Z AUTO 00000KT 10SM SCT023 BKN048 OVC065 16/10 A2985
RMK AO2 SLP128 T01560100 10172 20156 56002=

Extra information for PAMH:More info

Metar Taf Metar & Taf Last 4 Metars F.Rules Stats Wind Profile Meteogram Temp Stats Airport Information Weather charts Add Link Nearby VenuesMetar ALERT Operation Metar Decoded Social comments

AIRNAV info for PAMH